createdAt,value
2023-02-12T00:01:21.043Z,26.47
2023-02-12T00:03:49.515Z,26.50
2023-02-12T00:06:17.317Z,27.40
2023-02-12T00:08:45.070Z,25.57
2023-02-12T00:11:17.798Z,26.17
2023-02-12T00:13:45.553Z,26.80
2023-02-12T00:16:15.151Z,25.03
2023-02-12T00:18:43.592Z,25.97
2023-02-12T00:21:11.566Z,26.07
2023-02-12T00:23:38.999Z,25.70
2023-02-12T00:26:08.898Z,25.60
2023-02-12T00:28:37.042Z,25.37
2023-02-12T00:31:13.118Z,23.87
2023-02-12T00:33:40.613Z,25.50
2023-02-12T00:36:07.761Z,26.00
2023-02-12T00:38:35.658Z,24.00
2023-02-12T00:41:03.498Z,24.90
2023-02-12T00:43:31.452Z,25.80
2023-02-12T00:45:59.717Z,25.23
2023-02-12T00:48:30.313Z,24.13
2023-02-12T00:50:58.402Z,24.93
2023-02-12T00:53:26.634Z,22.93
2023-02-12T00:55:54.909Z,23.97
2023-02-12T00:58:23.115Z,23.77
2023-02-12T01:00:50.928Z,23.37
2023-02-12T01:03:18.076Z,22.87
2023-02-12T01:05:46.397Z,22.60
2023-02-12T01:08:14.431Z,23.43
2023-02-12T01:10:42.092Z,22.63
2023-02-12T01:13:13.578Z,23.20
2023-02-12T01:15:42.029Z,23.53
2023-02-12T01:18:09.841Z,25.10
2023-02-12T01:20:37.990Z,22.63
2023-02-12T01:23:07.045Z,23.03
2023-02-12T01:25:35.205Z,23.47
2023-02-12T01:28:03.373Z,22.90
2023-02-12T01:30:31.500Z,24.00
2023-02-12T01:33:01.164Z,24.23
2023-02-12T01:35:29.404Z,24.30
2023-02-12T01:37:59.007Z,23.47
2023-02-12T01:40:27.138Z,23.00
2023-02-12T01:43:02.129Z,22.90
2023-02-12T01:45:29.082Z,22.77
2023-02-12T01:47:57.223Z,23.40
2023-02-12T01:50:24.833Z,22.17
2023-02-12T01:52:54.197Z,23.70
2023-02-12T01:55:21.560Z,22.80
2023-02-12T01:57:49.116Z,23.07
2023-02-12T02:00:19.661Z,22.30
2023-02-12T02:02:49.549Z,24.97
2023-02-12T02:05:22.881Z,24.43
2023-02-12T02:07:50.848Z,25.33
2023-02-12T02:10:19.332Z,24.10
2023-02-12T02:13:05.780Z,21.97
2023-02-12T02:15:39.031Z,23.73
2023-02-12T02:18:11.940Z,24.83
2023-02-12T02:21:00.648Z,23.00
2023-02-12T02:23:57.244Z,23.40
2023-02-12T02:26:51.380Z,22.47
2023-02-12T02:29:45.620Z,21.43
2023-02-12T02:32:30.262Z,24.87
2023-02-12T02:35:51.867Z,24.03
2023-02-12T02:38:30.328Z,22.67
2023-02-12T02:41:05.962Z,23.60
2023-02-12T02:43:45.224Z,25.63
2023-02-12T02:46:19.045Z,23.67
2023-02-12T02:48:48.827Z,25.53
2023-02-12T02:51:20.006Z,23.47
2023-02-12T02:53:49.648Z,23.07
2023-02-12T02:56:18.239Z,25.17
2023-02-12T02:58:52.089Z,22.97
2023-02-12T03:01:36.794Z,25.37
2023-02-12T03:04:12.725Z,23.83
2023-02-12T03:07:02.071Z,25.17
2023-02-12T03:09:45.237Z,23.80
2023-02-12T03:12:19.968Z,25.83
2023-02-12T03:14:54.110Z,25.70
2023-02-12T03:17:24.247Z,24.13
2023-02-12T03:19:54.502Z,24.33
2023-02-12T03:22:27.441Z,25.33
2023-02-12T03:25:01.293Z,25.33
2023-02-12T03:27:35.633Z,26.70
2023-02-12T03:30:04.133Z,24.97
2023-02-12T03:32:37.506Z,24.47
2023-02-12T03:35:17.445Z,25.80
2023-02-12T03:37:59.500Z,26.53
2023-02-12T03:40:59.445Z,23.97
2023-02-12T03:43:35.475Z,24.90
2023-02-12T03:46:33.252Z,25.43
2023-02-12T03:49:11.623Z,25.00
2023-02-12T03:51:40.369Z,26.07
2023-02-12T03:54:08.611Z,28.97
2023-02-12T03:56:40.640Z,27.83
2023-02-12T03:59:09.690Z,28.03
2023-02-12T04:01:37.329Z,25.30
2023-02-12T04:04:06.261Z,26.00
2023-02-12T04:06:36.338Z,23.07
2023-02-12T04:09:06.014Z,23.50
2023-02-12T04:11:49.988Z,24.27
2023-02-12T04:14:50.148Z,25.30
2023-02-12T04:17:17.317Z,24.93
2023-02-12T04:19:58.423Z,25.27
2023-02-12T04:22:54.525Z,24.33
2023-02-12T04:25:26.910Z,24.43
2023-02-12T04:28:05.197Z,25.90
2023-02-12T04:31:02.081Z,27.07
2023-02-12T04:33:32.978Z,27.60
2023-02-12T04:36:27.827Z,28.77
2023-02-12T04:38:59.566Z,29.93
2023-02-12T04:41:27.723Z,27.20
2023-02-12T04:43:55.927Z,25.93
2023-02-12T04:46:25.157Z,24.80
2023-02-12T04:48:58.652Z,23.40
2023-02-12T04:51:26.648Z,25.87
2023-02-12T04:53:54.331Z,25.97
2023-02-12T04:56:22.362Z,26.20
2023-02-12T04:58:50.507Z,29.10
2023-02-12T05:01:19.054Z,27.13
2023-02-12T05:03:52.485Z,26.77
2023-02-12T05:06:20.446Z,24.17
2023-02-12T05:08:48.451Z,25.93
2023-02-12T05:11:16.207Z,24.70
2023-02-12T05:13:43.873Z,28.33
2023-02-12T05:16:13.053Z,28.30
2023-02-12T05:18:41.077Z,27.10
2023-02-12T05:21:08.859Z,26.40
2023-02-12T05:23:37.260Z,26.97
2023-02-12T05:26:08.645Z,27.60
2023-02-12T05:28:36.933Z,26.03
2023-02-12T05:31:08.525Z,26.77
2023-02-12T05:33:35.283Z,27.00
2023-02-12T05:38:33.448Z,23.60
2023-02-12T05:41:11.570Z,26.53
2023-02-12T05:43:40.249Z,26.60
2023-02-12T05:46:08.762Z,24.10
2023-02-12T05:48:36.592Z,28.20
2023-02-12T05:51:11.417Z,26.17
2023-02-12T05:53:39.718Z,26.80
2023-02-12T05:56:18.370Z,28.27
2023-02-12T05:58:47.689Z,27.90
2023-02-12T06:01:20.572Z,27.83
2023-02-12T06:03:48.810Z,27.10
2023-02-12T06:06:16.604Z,26.90
2023-02-12T06:08:44.796Z,29.47
2023-02-12T06:11:14.932Z,26.47
2023-02-12T06:13:42.743Z,26.93
2023-02-12T06:16:30.206Z,26.30
2023-02-12T06:18:58.390Z,26.67
2023-02-12T06:21:26.940Z,27.07
2023-02-12T06:23:54.750Z,27.33
2023-02-12T06:26:22.869Z,27.10
2023-02-12T06:28:49.599Z,27.83
2023-02-12T06:33:48.668Z,25.60
2023-02-12T06:36:18.078Z,26.50
2023-02-12T06:38:46.196Z,28.43
2023-02-12T06:41:14.569Z,25.93
2023-02-12T06:43:42.199Z,26.93
2023-02-12T06:46:10.117Z,26.77
2023-02-12T06:48:38.244Z,25.67
2023-02-12T06:51:13.418Z,26.80
2023-02-12T06:53:47.597Z,25.60
2023-02-12T06:56:14.703Z,26.27
2023-02-12T06:58:43.522Z,26.37
2023-02-12T07:01:13.601Z,27.77
2023-02-12T07:03:53.441Z,26.67
2023-02-12T07:06:38.858Z,26.90
2023-02-12T07:09:06.910Z,27.13
2023-02-12T07:11:37.932Z,29.43
2023-02-12T07:14:06.808Z,29.17
2023-02-12T07:16:35.030Z,29.37
2023-02-12T07:19:02.881Z,28.57
2023-02-12T07:21:32.177Z,28.97
2023-02-12T07:24:00.053Z,29.67
2023-02-12T07:26:28.224Z,27.13
2023-02-12T07:28:57.661Z,25.93
2023-02-12T07:31:25.894Z,28.23
2023-02-12T07:33:57.806Z,27.97
2023-02-12T07:36:26.515Z,28.60
2023-02-12T07:38:55.362Z,27.57
2023-02-12T07:41:25.726Z,27.87
2023-02-12T07:43:58.060Z,28.17
2023-02-12T07:46:30.811Z,27.33
2023-02-12T07:49:03.197Z,28.67
2023-02-12T07:51:36.437Z,27.23
2023-02-12T07:54:04.307Z,26.13
2023-02-12T07:56:35.229Z,26.40
2023-02-12T07:59:04.420Z,28.13
2023-02-12T08:01:36.282Z,25.77
2023-02-12T08:04:14.185Z,26.13
2023-02-12T08:06:46.568Z,23.37
2023-02-12T08:09:18.926Z,24.77
2023-02-12T08:11:47.198Z,24.67
2023-02-12T08:14:16.770Z,26.30
2023-02-12T08:16:45.007Z,26.23
2023-02-12T08:19:20.924Z,26.20
2023-02-12T08:21:53.018Z,24.60
2023-02-12T08:24:26.119Z,25.60
2023-02-12T08:26:54.205Z,26.90
2023-02-12T08:29:26.695Z,27.30
2023-02-12T08:32:02.175Z,28.37
2023-02-12T08:34:31.592Z,26.57
2023-02-12T08:36:59.589Z,25.47
2023-02-12T08:39:28.650Z,26.50
2023-02-12T08:41:57.169Z,25.40
2023-02-12T08:44:25.226Z,24.27
2023-02-12T08:46:53.679Z,25.43
2023-02-12T08:49:22.639Z,24.87
2023-02-12T08:51:51.517Z,24.70
2023-02-12T08:54:20.232Z,24.57
2023-02-12T08:56:48.145Z,24.70
2023-02-12T08:59:16.773Z,25.23
2023-02-12T09:01:45.168Z,24.40
2023-02-12T09:04:23.375Z,24.90
2023-02-12T09:06:50.635Z,26.60
2023-02-12T09:09:19.806Z,26.47
2023-02-12T09:11:48.485Z,27.33
2023-02-12T09:14:17.656Z,28.33
2023-02-12T09:16:45.504Z,27.10
2023-02-12T09:19:13.913Z,28.87
2023-02-12T09:21:41.487Z,27.40
2023-02-12T09:24:09.413Z,26.97
2023-02-12T09:26:37.461Z,26.67
2023-02-12T09:29:05.563Z,26.63
2023-02-12T09:31:34.312Z,26.17
2023-02-12T09:34:03.040Z,24.70
2023-02-12T09:36:30.863Z,23.67
2023-02-12T09:38:59.638Z,25.10
2023-02-12T09:41:59.614Z,24.33
2023-02-12T09:44:30.720Z,22.90
2023-02-12T09:47:05.780Z,20.33
2023-02-12T09:49:56.983Z,22.90
2023-02-12T09:52:26.927Z,22.93
2023-02-12T09:54:54.035Z,23.50
2023-02-12T09:57:37.868Z,22.97
2023-02-12T10:00:23.621Z,23.03
2023-02-12T10:02:52.542Z,20.60
2023-02-12T10:05:32.408Z,22.47
2023-02-12T10:08:27.177Z,22.43
2023-02-12T10:11:34.248Z,22.63
2023-02-12T10:14:37.983Z,23.43
2023-02-12T10:17:14.049Z,24.03
2023-02-12T10:19:41.068Z,23.80
2023-02-12T10:22:19.194Z,23.63
2023-02-12T10:25:02.493Z,24.33
2023-02-12T10:28:16.344Z,23.33
2023-02-12T10:31:00.654Z,23.43
2023-02-12T10:33:28.914Z,23.93
2023-02-12T10:36:37.911Z,24.93
2023-02-12T10:39:11.289Z,24.53
2023-02-12T10:41:41.424Z,23.70
2023-02-12T10:44:10.983Z,22.87
2023-02-12T10:46:38.878Z,23.47
2023-02-12T10:49:06.076Z,23.90
2023-02-12T10:51:49.015Z,21.97
2023-02-12T10:54:34.559Z,24.73
2023-02-12T10:57:10.953Z,23.80
2023-02-12T10:59:38.590Z,22.80
2023-02-12T11:02:18.020Z,24.17
2023-02-12T11:04:46.180Z,23.47
2023-02-12T11:07:14.364Z,22.63
2023-02-12T11:09:45.637Z,22.43
2023-02-12T11:12:35.120Z,23.70
2023-02-12T11:15:47.991Z,23.53
2023-02-12T11:18:44.580Z,24.33
2023-02-12T11:21:12.773Z,22.07
2023-02-12T11:23:45.237Z,22.50
2023-02-12T11:26:18.246Z,22.83
2023-02-12T11:29:02.332Z,23.57
2023-02-12T11:31:31.708Z,22.73
2023-02-12T11:34:04.568Z,23.73
2023-02-12T11:36:31.807Z,23.93
2023-02-12T11:38:59.050Z,24.17
2023-02-12T11:41:39.498Z,24.20
2023-02-12T11:44:25.898Z,24.33
2023-02-12T11:47:22.166Z,24.43
2023-02-12T11:49:55.032Z,24.00
2023-02-12T11:52:26.707Z,23.70
2023-02-12T11:54:58.387Z,25.17
2023-02-12T11:57:43.828Z,24.67
2023-02-12T12:00:13.136Z,23.27
2023-02-12T12:02:41.234Z,23.90
2023-02-12T12:05:13.446Z,23.90
2023-02-12T12:07:42.587Z,22.40
2023-02-12T12:10:23.710Z,23.13
2023-02-12T12:12:55.904Z,24.37
2023-02-12T12:15:42.982Z,22.77
2023-02-12T12:18:35.239Z,22.57
2023-02-12T12:21:12.513Z,23.63
2023-02-12T12:23:43.155Z,23.50
2023-02-12T12:27:00.551Z,24.57
2023-02-12T12:29:31.662Z,23.00
2023-02-12T12:32:01.658Z,22.80
2023-02-12T12:34:29.323Z,24.00
2023-02-12T12:37:18.804Z,23.73
2023-02-12T12:39:48.832Z,24.17
2023-02-12T12:42:47.979Z,23.47
2023-02-12T12:45:29.904Z,23.67
2023-02-12T12:48:18.488Z,22.90
2023-02-12T12:51:08.691Z,22.50
2023-02-12T12:53:54.176Z,24.87
2023-02-12T12:56:27.482Z,22.63
2023-02-12T12:59:18.549Z,23.67
2023-02-12T13:02:03.575Z,24.60
2023-02-12T13:04:45.621Z,23.00
2023-02-12T13:07:46.462Z,18.93
2023-02-12T13:10:27.282Z,17.10
2023-02-12T13:13:00.242Z,15.47
2023-02-12T13:16:05.284Z,15.57
2023-02-12T13:18:56.438Z,14.43
2023-02-12T13:22:06.137Z,14.47
2023-02-12T13:24:51.030Z,14.40
2023-02-12T13:27:20.923Z,14.33
2023-02-12T13:29:53.583Z,16.83
2023-02-12T13:32:27.164Z,15.57
2023-02-12T13:34:54.579Z,12.57
2023-02-12T13:37:35.706Z,11.30
2023-02-12T13:40:05.196Z,11.00
2023-02-12T13:42:38.487Z,10.40
2023-02-12T13:45:14.272Z,11.38
2023-02-12T13:48:18.413Z,10.65
2023-02-12T13:50:46.930Z,9.93
2023-02-12T13:53:17.141Z,10.38
2023-02-12T13:56:21.478Z,10.52
2023-02-12T13:58:53.239Z,11.05
2023-02-12T14:01:39.650Z,10.88
2023-02-12T14:04:21.606Z,11.20
2023-02-12T14:06:59.807Z,12.25
2023-02-12T14:09:35.415Z,12.88
2023-02-12T14:12:02.762Z,11.90
2023-02-12T14:14:38.661Z,13.07
2023-02-12T14:17:34.482Z,12.73
2023-02-12T14:20:27.808Z,12.90
2023-02-12T14:23:02.316Z,13.77
2023-02-12T14:25:45.923Z,15.67
2023-02-12T14:29:08.313Z,14.33
2023-02-12T14:31:37.434Z,13.53
2023-02-12T14:34:07.773Z,13.83
2023-02-12T14:36:39.019Z,14.27
2023-02-12T14:39:24.092Z,13.37
2023-02-12T14:41:57.448Z,14.27
2023-02-12T14:44:38.316Z,12.03
2023-02-12T14:47:35.309Z,12.33
2023-02-12T14:50:06.428Z,12.65
2023-02-12T14:52:37.885Z,13.17
2023-02-12T14:55:07.220Z,12.77
2023-02-12T14:57:40.391Z,13.20
2023-02-12T15:00:25.073Z,12.53
2023-02-12T15:02:53.008Z,12.90
2023-02-12T15:05:24.367Z,12.37
2023-02-12T15:07:56.278Z,12.87
2023-02-12T15:10:24.575Z,13.33
2023-02-12T15:12:54.643Z,13.57
2023-02-12T15:15:24.567Z,13.10
2023-02-12T15:17:59.607Z,12.93
2023-02-12T15:20:41.521Z,14.37
2023-02-12T15:23:37.830Z,14.67
2023-02-12T15:26:06.718Z,15.50
2023-02-12T15:28:36.408Z,15.93
2023-02-12T15:31:05.282Z,16.67
2023-02-12T15:33:34.126Z,15.87
2023-02-12T15:36:04.859Z,14.27
2023-02-12T15:38:36.578Z,14.20
2023-02-12T15:41:04.721Z,14.33
2023-02-12T15:43:36.787Z,14.40
2023-02-12T15:46:04.563Z,13.87
2023-02-12T15:48:33.538Z,14.80
2023-02-12T15:51:32.958Z,15.17
2023-02-12T15:54:00.228Z,14.37
2023-02-12T15:56:27.776Z,14.47
2023-02-12T15:58:59.043Z,14.27
2023-02-12T16:01:32.449Z,13.47
2023-02-12T16:04:04.125Z,15.00
2023-02-12T16:06:35.670Z,14.97
2023-02-12T16:09:10.623Z,13.47
2023-02-12T16:11:38.877Z,14.23
2023-02-12T16:14:08.813Z,14.30
2023-02-12T16:16:52.871Z,13.43
2023-02-12T16:19:25.316Z,21.40
2023-02-12T16:22:06.001Z,17.17
2023-02-12T16:25:02.663Z,14.47
2023-02-12T16:27:34.245Z,13.80
2023-02-12T16:30:01.870Z,13.83
2023-02-12T16:32:34.543Z,14.53
2023-02-12T16:35:44.553Z,13.13
2023-02-12T16:38:46.713Z,13.50
2023-02-12T16:41:23.781Z,18.57
2023-02-12T16:44:11.847Z,17.73
2023-02-12T16:46:46.889Z,13.30
2023-02-12T16:49:18.795Z,14.07
2023-02-12T16:51:46.593Z,21.53
2023-02-12T16:54:33.712Z,14.93
2023-02-12T16:57:01.988Z,16.55
2023-02-12T16:59:29.727Z,14.00
2023-02-12T17:02:30.052Z,13.50
2023-02-12T17:05:08.592Z,12.50
2023-02-12T17:07:36.277Z,13.73
2023-02-12T17:10:05.529Z,13.80
2023-02-12T17:12:33.410Z,14.97
2023-02-12T17:15:05.375Z,15.43
2023-02-12T17:17:33.080Z,14.07
2023-02-12T17:20:01.098Z,15.20
2023-02-12T17:22:31.045Z,16.33
2023-02-12T17:24:58.593Z,15.07
2023-02-12T17:27:26.353Z,15.67
2023-02-12T17:29:54.026Z,16.33
2023-02-12T17:32:24.611Z,17.27
2023-02-12T17:34:52.803Z,21.97
2023-02-12T17:37:22.351Z,20.07
2023-02-12T17:39:59.263Z,17.50
2023-02-12T17:42:27.473Z,16.08
2023-02-12T17:44:55.355Z,15.50
2023-02-12T17:47:23.166Z,16.87
2023-02-12T17:49:51.234Z,18.33
2023-02-12T17:52:19.327Z,19.93
2023-02-12T17:54:47.103Z,19.83
2023-02-12T17:57:16.205Z,18.63
2023-02-12T17:59:43.896Z,19.83
2023-02-12T18:02:11.776Z,16.83
2023-02-12T18:04:39.371Z,17.40
2023-02-12T18:07:07.594Z,16.40
2023-02-12T18:09:37.050Z,15.47
2023-02-12T18:12:05.980Z,14.70
2023-02-12T18:14:33.735Z,17.67
2023-02-12T18:17:01.967Z,16.60
2023-02-12T18:19:29.870Z,15.90
2023-02-12T18:21:57.825Z,13.83
2023-02-12T18:24:25.747Z,13.67
2023-02-12T18:26:53.453Z,14.03
2023-02-12T18:29:21.729Z,13.93
2023-02-12T18:31:49.488Z,12.77
2023-02-12T18:34:17.475Z,13.60
2023-02-12T18:36:45.644Z,13.77
2023-02-12T18:39:13.619Z,12.77
2023-02-12T18:41:42.018Z,13.30
2023-02-12T18:44:10.293Z,13.37
2023-02-12T18:46:38.424Z,13.23
2023-02-12T18:49:06.730Z,15.43
2023-02-12T18:51:37.039Z,14.20
2023-02-12T18:54:07.427Z,14.70
2023-02-12T18:56:36.888Z,15.07
2023-02-12T18:59:05.513Z,16.43
2023-02-12T19:01:33.976Z,15.97
2023-02-12T19:04:02.223Z,14.53
2023-02-12T19:06:30.621Z,15.10
2023-02-12T19:08:58.436Z,14.70
2023-02-12T19:11:26.033Z,13.50
2023-02-12T19:13:53.754Z,13.33
2023-02-12T19:16:23.487Z,12.63
2023-02-12T19:18:51.911Z,13.93
2023-02-12T19:21:19.828Z,13.87
2023-02-12T19:23:48.019Z,14.87
2023-02-12T19:26:16.018Z,13.83
2023-02-12T19:28:44.059Z,13.77
2023-02-12T19:31:19.715Z,13.47
2023-02-12T19:33:47.701Z,14.07
2023-02-12T19:36:19.512Z,13.73
2023-02-12T19:38:50.653Z,13.23
2023-02-12T19:41:20.819Z,13.43
2023-02-12T19:43:48.460Z,14.43
2023-02-12T19:46:17.390Z,14.73
2023-02-12T19:48:45.479Z,16.13
2023-02-12T19:51:16.965Z,14.47
2023-02-12T19:53:46.403Z,13.60
2023-02-12T19:56:14.616Z,14.77
2023-02-12T19:58:42.528Z,15.03
2023-02-12T20:01:10.511Z,14.03
2023-02-12T20:03:39.057Z,14.03
2023-02-12T20:06:09.943Z,15.67
2023-02-12T20:08:37.450Z,15.73
2023-02-12T20:11:32.092Z,14.53
2023-02-12T20:13:59.861Z,14.90
2023-02-12T20:16:31.536Z,14.90
2023-02-12T20:19:00.886Z,15.27
2023-02-12T20:21:28.573Z,20.63
2023-02-12T20:23:57.003Z,17.53
2023-02-12T20:26:25.171Z,16.33
2023-02-12T20:28:52.462Z,19.00
2023-02-12T20:31:24.629Z,17.33
2023-02-12T20:34:01.656Z,15.80
2023-02-12T20:36:33.763Z,15.55
2023-02-12T20:39:01.296Z,15.50
2023-02-12T20:41:28.568Z,16.67
2023-02-12T20:43:56.858Z,15.47
2023-02-12T20:46:25.205Z,15.30
2023-02-12T20:48:54.426Z,18.83
2023-02-12T20:51:26.397Z,16.00
2023-02-12T20:53:55.519Z,16.93
2023-02-12T20:56:25.409Z,15.80
2023-02-12T20:58:53.158Z,15.97
2023-02-12T21:01:24.628Z,16.53
2023-02-12T21:03:53.642Z,16.07
2023-02-12T21:06:21.304Z,18.47
2023-02-12T21:08:48.948Z,19.60
2023-02-12T21:11:23.936Z,18.00
2023-02-12T21:14:02.550Z,17.17
2023-02-12T21:16:38.662Z,16.70
2023-02-12T21:19:06.190Z,16.87
2023-02-12T21:21:36.934Z,16.37
2023-02-12T21:24:07.001Z,17.80
2023-02-12T21:26:34.654Z,18.87
2023-02-12T21:29:03.599Z,18.23
2023-02-12T21:31:37.336Z,17.40
2023-02-12T21:34:05.855Z,16.50
2023-02-12T21:36:37.850Z,17.73
2023-02-12T21:39:09.476Z,15.93
2023-02-12T21:41:38.801Z,15.80
2023-02-12T21:44:14.593Z,17.67
2023-02-12T21:46:42.607Z,17.37
2023-02-12T21:49:11.675Z,16.73
2023-02-12T21:51:41.238Z,17.80
2023-02-12T21:54:10.347Z,18.10
2023-02-12T21:56:38.779Z,17.53
2023-02-12T21:59:07.128Z,16.27
2023-02-12T22:01:36.113Z,15.43
2023-02-12T22:04:06.974Z,18.13
2023-02-12T22:06:36.834Z,17.57
2023-02-12T22:09:08.012Z,17.33
2023-02-12T22:11:58.977Z,16.40
2023-02-12T22:14:26.910Z,16.63
2023-02-12T22:16:55.581Z,16.07
2023-02-12T22:19:23.424Z,16.33
2023-02-12T22:21:51.838Z,17.73
2023-02-12T22:24:19.661Z,16.43
2023-02-12T22:26:47.635Z,16.57
2023-02-12T22:29:16.090Z,17.17
2023-02-12T22:31:45.331Z,16.97
2023-02-12T22:34:14.113Z,17.10
2023-02-12T22:36:42.222Z,18.03
2023-02-12T22:39:10.028Z,18.40
2023-02-12T22:41:38.043Z,16.20
2023-02-12T22:44:06.569Z,14.83
2023-02-12T22:46:36.360Z,13.17
2023-02-12T22:49:04.365Z,11.63
2023-02-12T22:51:32.285Z,12.27
2023-02-12T22:53:59.039Z,11.87
2023-02-12T22:56:27.693Z,12.47
2023-02-12T22:58:59.124Z,12.70
2023-02-12T23:01:26.202Z,12.77
2023-02-12T23:03:54.076Z,13.07
2023-02-12T23:06:23.576Z,13.70
2023-02-12T23:08:51.608Z,13.63
2023-02-12T23:11:19.101Z,12.00
2023-02-12T23:13:46.881Z,11.40
2023-02-12T23:16:14.977Z,10.07
2023-02-12T23:18:44.569Z,10.07
2023-02-12T23:21:13.068Z,9.50
2023-02-12T23:23:41.543Z,8.40
2023-02-12T23:26:09.628Z,8.53
2023-02-12T23:28:37.432Z,7.93
2023-02-12T23:31:05.740Z,7.80
2023-02-12T23:33:34.725Z,7.43
2023-02-12T23:36:02.714Z,6.60
2023-02-12T23:38:30.802Z,6.93
2023-02-12T23:40:59.491Z,6.80
2023-02-12T23:43:27.802Z,5.93
2023-02-12T23:45:55.867Z,5.40
2023-02-12T23:48:23.515Z,5.67
2023-02-12T23:50:52.213Z,6.17
2023-02-12T23:53:20.047Z,5.93
2023-02-12T23:55:49.835Z,5.77
2023-02-12T23:58:17.902Z,5.57
